sensor_id;sensor_type;location;lat;lon;timestamp;pressure;altitude;pressure_sealevel;temperature;humidity
10006;BME280;5042;42.626;23.382;2023-05-17T00:00:53;93792.44;;;15.14;100.00
10006;BME280;5042;42.626;23.382;2023-05-17T00:03:19;93795.31;;;15.24;100.00
10006;BME280;5042;42.626;23.382;2023-05-17T00:05:46;93798.88;;;15.18;100.00
10006;BME280;5042;42.626;23.382;2023-05-17T00:08:13;93800.72;;;14.94;100.00
10006;BME280;5042;42.626;23.382;2023-05-17T00:10:40;93798.44;;;14.74;100.00
10006;BME280;5042;42.626;23.382;2023-05-17T00:13:07;93795.44;;;14.70;100.00
10006;BME280;5042;42.626;23.382;2023-05-17T00:15:35;93795.44;;;14.82;100.00
10006;BME280;5042;42.626;23.382;2023-05-17T00:18:02;93783.06;;;14.82;100.00
10006;BME280;5042;42.626;23.382;2023-05-17T00:20:29;93781.69;;;14.92;100.00
10006;BME280;5042;42.626;23.382;2023-05-17T00:22:56;93774.91;;;14.84;100.00
10006;BME280;5042;42.626;23.382;2023-05-17T00:25:22;93782.25;;;14.70;100.00
10006;BME280;5042;42.626;23.382;2023-05-17T00:27:49;93785.69;;;14.71;100.00
10006;BME280;5042;42.626;23.382;2023-05-17T00:30:16;93792.00;;;14.81;100.00
10006;BME280;5042;42.626;23.382;2023-05-17T00:32:44;93787.06;;;14.73;100.00
10006;BME280;5042;42.626;23.382;2023-05-17T00:35:11;93787.75;;;14.69;100.00
10006;BME280;5042;42.626;23.382;2023-05-17T00:37:38;93782.09;;;14.53;100.00
10006;BME280;5042;42.626;23.382;2023-05-17T00:40:06;93788.31;;;14.59;100.00
10006;BME280;5042;42.626;23.382;2023-05-17T00:42:32;93793.91;;;14.51;100.00
10006;BME280;5042;42.626;23.382;2023-05-17T00:44:59;93793.44;;;14.42;100.00
10006;BME280;5042;42.626;23.382;2023-05-17T00:47:26;93794.22;;;14.31;100.00
10006;BME280;5042;42.626;23.382;2023-05-17T00:49:54;93785.13;;;14.15;100.00
10006;BME280;5042;42.626;23.382;2023-05-17T00:52:21;93801.66;;;14.22;100.00
10006;BME280;5042;42.626;23.382;2023-05-17T00:54:49;93809.78;;;14.20;100.00
10006;BME280;5042;42.626;23.382;2023-05-17T00:57:16;93809.66;;;14.15;100.00
10006;BME280;5042;42.626;23.382;2023-05-17T00:59:43;93794.13;;;13.95;100.00
10006;BME280;5042;42.626;23.382;2023-05-17T01:02:10;93797.31;;;13.86;100.00
10006;BME280;5042;42.626;23.382;2023-05-17T01:04:37;93803.28;;;13.93;100.00
10006;BME280;5042;42.626;23.382;2023-05-17T01:07:05;93800.94;;;13.85;100.00
10006;BME280;5042;42.626;23.382;2023-05-17T01:09:34;93803.97;;;13.88;100.00
10006;BME280;5042;42.626;23.382;2023-05-17T01:12:14;93805.81;;;13.99;100.00
10006;BME280;5042;42.626;23.382;2023-05-17T01:14:51;93798.81;;;13.93;100.00
10006;BME280;5042;42.626;23.382;2023-05-17T01:17:25;93803.63;;;13.96;100.00
10006;BME280;5042;42.626;23.382;2023-05-17T01:20:00;93807.78;;;14.04;100.00
10006;BME280;5042;42.626;23.382;2023-05-17T01:22:43;93758.19;;;13.71;100.00
10006;BME280;5042;42.626;23.382;2023-05-17T01:25:26;93801.31;;;13.88;100.00
10006;BME280;5042;42.626;23.382;2023-05-17T01:27:57;93791.75;;;13.75;100.00
10006;BME280;5042;42.626;23.382;2023-05-17T01:30:25;93780.75;;;13.78;100.00
10006;BME280;5042;42.626;23.382;2023-05-17T01:32:54;93808.72;;;13.79;100.00
10006;BME280;5042;42.626;23.382;2023-05-17T01:35:21;93804.72;;;13.77;100.00
10006;BME280;5042;42.626;23.382;2023-05-17T01:37:48;93801.56;;;13.68;100.00
10006;BME280;5042;42.626;23.382;2023-05-17T01:40:16;93797.81;;;13.76;100.00
10006;BME280;5042;42.626;23.382;2023-05-17T01:42:44;93791.22;;;13.85;100.00
10006;BME280;5042;42.626;23.382;2023-05-17T01:45:17;93800.75;;;13.86;100.00
10006;BME280;5042;42.626;23.382;2023-05-17T01:47:49;93801.44;;;13.93;100.00
10006;BME280;5042;42.626;23.382;2023-05-17T01:50:22;93799.63;;;13.94;100.00
10006;BME280;5042;42.626;23.382;2023-05-17T01:52:52;93804.81;;;14.00;100.00
10006;BME280;5042;42.626;23.382;2023-05-17T01:55:25;93774.16;;;13.88;100.00
10006;BME280;5042;42.626;23.382;2023-05-17T01:57:56;93779.66;;;13.86;100.00
10006;BME280;5042;42.626;23.382;2023-05-17T02:00:25;93779.38;;;13.76;100.00
10006;BME280;5042;42.626;23.382;2023-05-17T02:02:54;93780.50;;;13.68;100.00
10006;BME280;5042;42.626;23.382;2023-05-17T02:05:21;93783.78;;;13.64;100.00
10006;BME280;5042;42.626;23.382;2023-05-17T02:07:48;93787.59;;;13.68;100.00
10006;BME280;5042;42.626;23.382;2023-05-17T02:10:15;93793.38;;;13.76;100.00
10006;BME280;5042;42.626;23.382;2023-05-17T02:12:41;93789.16;;;13.87;100.00
10006;BME280;5042;42.626;23.382;2023-05-17T02:15:09;93785.22;;;13.78;100.00
10006;BME280;5042;42.626;23.382;2023-05-17T02:17:38;93743.00;;;13.54;100.00
10006;BME280;5042;42.626;23.382;2023-05-17T02:20:06;93772.63;;;13.80;100.00
10006;BME280;5042;42.626;23.382;2023-05-17T02:22:34;93778.38;;;13.77;100.00
10006;BME280;5042;42.626;23.382;2023-05-17T02:25:01;93778.81;;;13.74;100.00
10006;BME280;5042;42.626;23.382;2023-05-17T02:27:28;93779.81;;;13.73;100.00
10006;BME280;5042;42.626;23.382;2023-05-17T02:29:55;93777.91;;;13.80;100.00
10006;BME280;5042;42.626;23.382;2023-05-17T02:32:21;93777.03;;;13.86;100.00
10006;BME280;5042;42.626;23.382;2023-05-17T02:34:50;93778.88;;;13.86;100.00
10006;BME280;5042;42.626;23.382;2023-05-17T02:37:17;93788.00;;;13.83;100.00
10006;BME280;5042;42.626;23.382;2023-05-17T02:39:43;93786.84;;;13.79;100.00
10006;BME280;5042;42.626;23.382;2023-05-17T02:42:10;93741.94;;;13.44;100.00
10006;BME280;5042;42.626;23.382;2023-05-17T02:44:37;93785.56;;;13.70;100.00
10006;BME280;5042;42.626;23.382;2023-05-17T02:47:04;93790.81;;;13.70;100.00
10006;BME280;5042;42.626;23.382;2023-05-17T02:49:31;93803.28;;;13.63;100.00
10006;BME280;5042;42.626;23.382;2023-05-17T02:51:59;93804.72;;;13.58;100.00
10006;BME280;5042;42.626;23.382;2023-05-17T02:54:26;93812.91;;;13.69;100.00
10006;BME280;5042;42.626;23.382;2023-05-17T02:56:53;93822.56;;;13.75;100.00
10006;BME280;5042;42.626;23.382;2023-05-17T02:59:20;93828.28;;;13.53;100.00
10006;BME280;5042;42.626;23.382;2023-05-17T03:01:46;93831.63;;;13.24;100.00
10006;BME280;5042;42.626;23.382;2023-05-17T03:04:14;93828.97;;;13.24;100.00
10006;BME280;5042;42.626;23.382;2023-05-17T03:06:41;93839.97;;;13.21;100.00
10006;BME280;5042;42.626;23.382;2023-05-17T03:09:09;93842.00;;;13.19;100.00
10006;BME280;5042;42.626;23.382;2023-05-17T03:11:36;93839.81;;;13.15;100.00
10006;BME280;5042;42.626;23.382;2023-05-17T03:14:03;93826.06;;;13.13;100.00
10006;BME280;5042;42.626;23.382;2023-05-17T03:16:29;93829.56;;;13.26;100.00
10006;BME280;5042;42.626;23.382;2023-05-17T03:18:56;93842.69;;;13.32;100.00
10006;BME280;5042;42.626;23.382;2023-05-17T03:21:23;93846.13;;;13.33;100.00
10006;BME280;5042;42.626;23.382;2023-05-17T03:23:50;93841.59;;;13.40;100.00
10006;BME280;5042;42.626;23.382;2023-05-17T03:26:19;93829.53;;;13.32;100.00
10006;BME280;5042;42.626;23.382;2023-05-17T03:28:47;93830.13;;;13.34;100.00
10006;BME280;5042;42.626;23.382;2023-05-17T03:31:14;93844.22;;;13.40;100.00
10006;BME280;5042;42.626;23.382;2023-05-17T03:33:41;93831.66;;;13.42;100.00
10006;BME280;5042;42.626;23.382;2023-05-17T03:36:08;93843.06;;;13.54;100.00
10006;BME280;5042;42.626;23.382;2023-05-17T03:38:35;93834.72;;;13.39;100.00
10006;BME280;5042;42.626;23.382;2023-05-17T03:41:03;93837.38;;;13.39;100.00
10006;BME280;5042;42.626;23.382;2023-05-17T03:43:31;93838.81;;;13.53;100.00
10006;BME280;5042;42.626;23.382;2023-05-17T03:45:58;93837.50;;;13.44;100.00
10006;BME280;5042;42.626;23.382;2023-05-17T03:48:25;93827.69;;;13.33;100.00
10006;BME280;5042;42.626;23.382;2023-05-17T03:50:52;93842.91;;;13.31;100.00
10006;BME280;5042;42.626;23.382;2023-05-17T03:53:18;93845.00;;;13.22;100.00
10006;BME280;5042;42.626;23.382;2023-05-17T03:55:45;93842.09;;;13.30;100.00
10006;BME280;5042;42.626;23.382;2023-05-17T03:58:12;93851.25;;;13.28;100.00
10006;BME280;5042;42.626;23.382;2023-05-17T04:00:41;93842.91;;;13.31;100.00
10006;BME280;5042;42.626;23.382;2023-05-17T04:03:08;93851.25;;;13.28;100.00
10006;BME280;5042;42.626;23.382;2023-05-17T04:05:34;93852.88;;;13.29;100.00
10006;BME280;5042;42.626;23.382;2023-05-17T04:08:01;93843.16;;;13.48;100.00
10006;BME280;5042;42.626;23.382;2023-05-17T04:10:29;93842.19;;;13.61;100.00
10006;BME280;5042;42.626;23.382;2023-05-17T04:12:57;93855.69;;;13.83;100.00
10006;BME280;5042;42.626;23.382;2023-05-17T04:15:23;93834.22;;;13.97;100.00
10006;BME280;5042;42.626;23.382;2023-05-17T04:17:51;93838.53;;;14.10;100.00
10006;BME280;5042;42.626;23.382;2023-05-17T04:20:19;93842.41;;;14.08;100.00
10006;BME280;5042;42.626;23.382;2023-05-17T04:22:46;93843.03;;;14.21;100.00
10006;BME280;5042;42.626;23.382;2023-05-17T04:25:13;93846.84;;;14.37;100.00
10006;BME280;5042;42.626;23.382;2023-05-17T04:27:40;93855.22;;;14.34;100.00
10006;BME280;5042;42.626;23.382;2023-05-17T04:30:08;93847.47;;;14.21;100.00
10006;BME280;5042;42.626;23.382;2023-05-17T04:32:35;93855.97;;;14.23;100.00
10006;BME280;5042;42.626;23.382;2023-05-17T04:35:03;93848.00;;;14.41;100.00
10006;BME280;5042;42.626;23.382;2023-05-17T04:37:30;93845.25;;;14.36;100.00
10006;BME280;5042;42.626;23.382;2023-05-17T04:39:57;93840.84;;;14.30;100.00
10006;BME280;5042;42.626;23.382;2023-05-17T04:42:24;93840.69;;;14.43;100.00
10006;BME280;5042;42.626;23.382;2023-05-17T04:44:51;93843.59;;;14.66;100.00
10006;BME280;5042;42.626;23.382;2023-05-17T04:47:18;93831.03;;;14.91;100.00
10006;BME280;5042;42.626;23.382;2023-05-17T04:49:44;93841.88;;;15.42;100.00
10006;BME280;5042;42.626;23.382;2023-05-17T04:52:13;93838.81;;;15.97;100.00
10006;BME280;5042;42.626;23.382;2023-05-17T04:54:39;93832.56;;;16.32;100.00
10006;BME280;5042;42.626;23.382;2023-05-17T04:57:06;93826.41;;;16.60;100.00
10006;BME280;5042;42.626;23.382;2023-05-17T04:59:33;93829.50;;;16.86;100.00
10006;BME280;5042;42.626;23.382;2023-05-17T05:02:00;93831.66;;;16.89;100.00
10006;BME280;5042;42.626;23.382;2023-05-17T05:04:26;93833.19;;;17.02;100.00
10006;BME280;5042;42.626;23.382;2023-05-17T05:06:53;93838.16;;;16.81;100.00
10006;BME280;5042;42.626;23.382;2023-05-17T05:09:21;93849.09;;;16.85;100.00
10006;BME280;5042;42.626;23.382;2023-05-17T05:11:48;93845.22;;;16.92;100.00
10006;BME280;5042;42.626;23.382;2023-05-17T05:14:15;93849.09;;;17.02;100.00
10006;BME280;5042;42.626;23.382;2023-05-17T05:16:41;93855.16;;;17.19;100.00
10006;BME280;5042;42.626;23.382;2023-05-17T05:19:08;93861.44;;;17.52;100.00
10006;BME280;5042;42.626;23.382;2023-05-17T05:21:35;93849.22;;;17.51;100.00
10006;BME280;5042;42.626;23.382;2023-05-17T05:24:02;93858.41;;;17.65;100.00
10006;BME280;5042;42.626;23.382;2023-05-17T05:26:30;93852.47;;;17.75;100.00
10006;BME280;5042;42.626;23.382;2023-05-17T05:28:57;93848.28;;;18.23;100.00
10006;BME280;5042;42.626;23.382;2023-05-17T05:31:25;93858.09;;;18.77;100.00
10006;BME280;5042;42.626;23.382;2023-05-17T05:33:52;93846.13;;;19.06;100.00
10006;BME280;5042;42.626;23.382;2023-05-17T05:36:19;93858.31;;;19.45;100.00
10006;BME280;5042;42.626;23.382;2023-05-17T05:38:46;93847.91;;;19.81;100.00
10006;BME280;5042;42.626;23.382;2023-05-17T05:41:12;93860.84;;;20.30;100.00
10006;BME280;5042;42.626;23.382;2023-05-17T05:43:40;93868.34;;;20.43;100.00
10006;BME280;5042;42.626;23.382;2023-05-17T05:46:07;93862.41;;;20.10;100.00
10006;BME280;5042;42.626;23.382;2023-05-17T05:48:34;93866.25;;;19.77;100.00
10006;BME280;5042;42.626;23.382;2023-05-17T05:51:03;93829.41;;;20.11;100.00
10006;BME280;5042;42.626;23.382;2023-05-17T05:53:30;93876.16;;;20.75;100.00
10006;BME280;5042;42.626;23.382;2023-05-17T05:55:57;93871.84;;;20.59;100.00
10006;BME280;5042;42.626;23.382;2023-05-17T05:58:24;93872.88;;;19.75;100.00
10006;BME280;5042;42.626;23.382;2023-05-17T06:00:52;93869.63;;;19.25;100.00
10006;BME280;5042;42.626;23.382;2023-05-17T06:03:19;93884.66;;;19.09;100.00
10006;BME280;5042;42.626;23.382;2023-05-17T06:05:45;93891.69;;;18.93;100.00
10006;BME280;5042;42.626;23.382;2023-05-17T06:08:12;93888.31;;;18.76;100.00
10006;BME280;5042;42.626;23.382;2023-05-17T06:10:39;93890.84;;;18.88;100.00
10006;BME280;5042;42.626;23.382;2023-05-17T06:13:05;93882.00;;;19.09;100.00
10006;BME280;5042;42.626;23.382;2023-05-17T06:15:32;93875.13;;;18.81;100.00
10006;BME280;5042;42.626;23.382;2023-05-17T06:18:00;93874.38;;;18.58;100.00
10006;BME280;5042;42.626;23.382;2023-05-17T06:20:27;93866.88;;;18.55;100.00
10006;BME280;5042;42.626;23.382;2023-05-17T06:22:54;93877.91;;;18.42;100.00
10006;BME280;5042;42.626;23.382;2023-05-17T06:25:21;93886.44;;;18.22;100.00
10006;BME280;5042;42.626;23.382;2023-05-17T06:27:48;93895.72;;;17.97;100.00
10006;BME280;5042;42.626;23.382;2023-05-17T06:30:14;93891.97;;;17.76;100.00
10006;BME280;5042;42.626;23.382;2023-05-17T06:32:42;93903.25;;;17.67;100.00
10006;BME280;5042;42.626;23.382;2023-05-17T06:35:10;93892.69;;;17.50;100.00
10006;BME280;5042;42.626;23.382;2023-05-17T06:37:37;93890.03;;;17.50;100.00
10006;BME280;5042;42.626;23.382;2023-05-17T06:40:05;93881.69;;;17.41;100.00
10006;BME280;5042;42.626;23.382;2023-05-17T06:42:33;93884.78;;;17.16;100.00
10006;BME280;5042;42.626;23.382;2023-05-17T06:45:00;93888.94;;;17.29;100.00
10006;BME280;5042;42.626;23.382;2023-05-17T06:47:27;93886.53;;;17.27;100.00
10006;BME280;5042;42.626;23.382;2023-05-17T06:49:54;93890.66;;;17.18;100.00
10006;BME280;5042;42.626;23.382;2023-05-17T06:52:22;93882.59;;;16.96;100.00
10006;BME280;5042;42.626;23.382;2023-05-17T06:54:49;93886.50;;;16.77;100.00
10006;BME280;5042;42.626;23.382;2023-05-17T06:57:16;93878.72;;;16.70;100.00
10006;BME280;5042;42.626;23.382;2023-05-17T06:59:43;93881.34;;;16.70;100.00
10006;BME280;5042;42.626;23.382;2023-05-17T07:02:09;93880.63;;;16.58;100.00
10006;BME280;5042;42.626;23.382;2023-05-17T07:04:36;93882.53;;;16.45;100.00
10006;BME280;5042;42.626;23.382;2023-05-17T07:07:03;93888.31;;;16.42;100.00
10006;BME280;5042;42.626;23.382;2023-05-17T07:09:31;93898.53;;;16.39;100.00
10006;BME280;5042;42.626;23.382;2023-05-17T07:11:58;93891.66;;;16.38;100.00
10006;BME280;5042;42.626;23.382;2023-05-17T07:14:25;93879.38;;;16.31;100.00
10006;BME280;5042;42.626;23.382;2023-05-17T07:16:51;93888.75;;;16.39;100.00
10006;BME280;5042;42.626;23.382;2023-05-17T07:19:18;93891.91;;;16.53;100.00
10006;BME280;5042;42.626;23.382;2023-05-17T07:21:45;93904.13;;;16.54;100.00
10006;BME280;5042;42.626;23.382;2023-05-17T07:24:13;93904.16;;;16.42;100.00
10006;BME280;5042;42.626;23.382;2023-05-17T07:26:41;93878.34;;;16.32;100.00
10006;BME280;5042;42.626;23.382;2023-05-17T07:29:08;93851.50;;;16.58;100.00
10006;BME280;5042;42.626;23.382;2023-05-17T07:31:34;93903.63;;;17.03;100.00
10006;BME280;5042;42.626;23.382;2023-05-17T07:34:01;93909.09;;;17.13;100.00
10006;BME280;5042;42.626;23.382;2023-05-17T07:36:28;93904.41;;;17.20;100.00
10006;BME280;5042;42.626;23.382;2023-05-17T07:38:55;93911.41;;;16.92;100.00
10006;BME280;5042;42.626;23.382;2023-05-17T07:41:22;93914.38;;;16.96;100.00
10006;BME280;5042;42.626;23.382;2023-05-17T07:43:50;93910.78;;;16.85;100.00
10006;BME280;5042;42.626;23.382;2023-05-17T07:46:16;93903.72;;;16.62;100.00
10006;BME280;5042;42.626;23.382;2023-05-17T07:48:43;93915.50;;;16.54;100.00
10006;BME280;5042;42.626;23.382;2023-05-17T07:51:10;93911.41;;;16.47;100.00
10006;BME280;5042;42.626;23.382;2023-05-17T07:53:37;93908.53;;;16.37;100.00
10006;BME280;5042;42.626;23.382;2023-05-17T07:56:04;93903.97;;;16.32;100.00
10006;BME280;5042;42.626;23.382;2023-05-17T07:58:31;93916.34;;;16.43;100.00
10006;BME280;5042;42.626;23.382;2023-05-17T08:00:59;93912.47;;;16.34;100.00
10006;BME280;5042;42.626;23.382;2023-05-17T08:03:26;93916.13;;;16.45;100.00
10006;BME280;5042;42.626;23.382;2023-05-17T08:05:53;93913.47;;;16.45;100.00
10006;BME280;5042;42.626;23.382;2023-05-17T08:08:20;93911.84;;;16.44;100.00
10006;BME280;5042;42.626;23.382;2023-05-17T08:10:47;93918.00;;;16.61;100.00
10006;BME280;5042;42.626;23.382;2023-05-17T08:13:14;93909.53;;;16.76;100.00
10006;BME280;5042;42.626;23.382;2023-05-17T08:15:40;93905.63;;;16.95;100.00
10006;BME280;5042;42.626;23.382;2023-05-17T08:18:09;93905.72;;;17.01;100.00
10006;BME280;5042;42.626;23.382;2023-05-17T08:20:36;93911.84;;;17.18;100.00
10006;BME280;5042;42.626;23.382;2023-05-17T08:23:03;93908.28;;;17.29;100.00
10006;BME280;5042;42.626;23.382;2023-05-17T08:25:30;93902.16;;;17.46;100.00
10006;BME280;5042;42.626;23.382;2023-05-17T08:27:56;93907.25;;;17.69;100.00
10006;BME280;5042;42.626;23.382;2023-05-17T08:30:23;93898.44;;;18.02;100.00
10006;BME280;5042;42.626;23.382;2023-05-17T08:32:50;93897.81;;;18.17;100.00
10006;BME280;5042;42.626;23.382;2023-05-17T08:35:18;93902.81;;;18.14;100.00
10006;BME280;5042;42.626;23.382;2023-05-17T08:37:47;93893.38;;;18.23;100.00
10006;BME280;5042;42.626;23.382;2023-05-17T08:40:14;93895.94;;;18.40;100.00
10006;BME280;5042;42.626;23.382;2023-05-17T08:42:44;93914.75;;;18.38;100.00
10006;BME280;5042;42.626;23.382;2023-05-17T08:45:12;93910.75;;;18.36;100.00
10006;BME280;5042;42.626;23.382;2023-05-17T08:47:40;93897.75;;;18.34;100.00
10006;BME280;5042;42.626;23.382;2023-05-17T08:50:09;93888.78;;;18.40;100.00
10006;BME280;5042;42.626;23.382;2023-05-17T08:52:38;93888.06;;;18.50;100.00
10006;BME280;5042;42.626;23.382;2023-05-17T08:55:06;93854.31;;;18.18;100.00
10006;BME280;5042;42.626;23.382;2023-05-17T08:57:34;93871.03;;;18.19;100.00
10006;BME280;5042;42.626;23.382;2023-05-17T09:00:03;93882.72;;;18.45;100.00
10006;BME280;5042;42.626;23.382;2023-05-17T09:02:31;93910.19;;;18.56;100.00
10006;BME280;5042;42.626;23.382;2023-05-17T09:04:58;93899.78;;;18.76;100.00
10006;BME280;5042;42.626;23.382;2023-05-17T09:07:25;93892.44;;;18.89;100.00
10006;BME280;5042;42.626;23.382;2023-05-17T09:09:53;93875.75;;;18.93;100.00
10006;BME280;5042;42.626;23.382;2023-05-17T09:12:20;93892.88;;;19.07;100.00
10006;BME280;5042;42.626;23.382;2023-05-17T09:14:47;93868.00;;;18.87;100.00
10006;BME280;5042;42.626;23.382;2023-05-17T09:17:16;93840.00;;;18.47;100.00
10006;BME280;5042;42.626;23.382;2023-05-17T09:19:44;93885.88;;;18.69;100.00
10006;BME280;5042;42.626;23.382;2023-05-17T09:22:12;93882.72;;;18.72;100.00
10006;BME280;5042;42.626;23.382;2023-05-17T09:24:40;93894.63;;;18.42;100.00
10006;BME280;5042;42.626;23.382;2023-05-17T09:27:13;93892.03;;;18.48;100.00
10006;BME280;5042;42.626;23.382;2023-05-17T09:29:43;93873.03;;;18.34;100.00
10006;BME280;5042;42.626;23.382;2023-05-17T09:32:11;93885.94;;;18.47;100.00
10006;BME280;5042;42.626;23.382;2023-05-17T09:34:39;93883.19;;;18.37;100.00
10006;BME280;5042;42.626;23.382;2023-05-17T09:37:11;93880.66;;;18.03;100.00
10006;BME280;5042;42.626;23.382;2023-05-17T09:39:54;93917.75;;;18.20;100.00
10006;BME280;5042;42.626;23.382;2023-05-17T09:42:25;93867.25;;;18.15;100.00
10006;BME280;5042;42.626;23.382;2023-05-17T09:44:54;93874.72;;;18.40;100.00
10006;BME280;5042;42.626;23.382;2023-05-17T09:47:23;93882.22;;;18.48;100.00
10006;BME280;5042;42.626;23.382;2023-05-17T09:49:54;93813.47;;;18.19;100.00
10006;BME280;5042;42.626;23.382;2023-05-17T09:52:27;93894.09;;;18.68;100.00
10006;BME280;5042;42.626;23.382;2023-05-17T09:54:56;93888.78;;;18.68;100.00
10006;BME280;5042;42.626;23.382;2023-05-17T09:57:36;93892.59;;;18.77;100.00
10006;BME280;5042;42.626;23.382;2023-05-17T10:00:06;93897.16;;;18.54;100.00
10006;BME280;5042;42.626;23.382;2023-05-17T10:02:37;93896.19;;;18.38;100.00
10006;BME280;5042;42.626;23.382;2023-05-17T10:05:09;93895.75;;;18.47;100.00
10006;BME280;5042;42.626;23.382;2023-05-17T10:07:37;93872.09;;;18.45;100.00
10006;BME280;5042;42.626;23.382;2023-05-17T10:10:05;93886.03;;;18.57;100.00
10006;BME280;5042;42.626;23.382;2023-05-17T10:12:38;93847.63;;;18.38;100.00
10006;BME280;5042;42.626;23.382;2023-05-17T10:15:11;93881.81;;;18.61;100.00
10006;BME280;5042;42.626;23.382;2023-05-17T10:17:40;93839.75;;;17.94;100.00
10006;BME280;5042;42.626;23.382;2023-05-17T10:20:11;93833.22;;;17.63;100.00
10006;BME280;5042;42.626;23.382;2023-05-17T10:22:39;93873.91;;;17.73;100.00
10006;BME280;5042;42.626;23.382;2023-05-17T10:25:07;93860.47;;;17.80;100.00
10006;BME280;5042;42.626;23.382;2023-05-17T10:27:41;93849.53;;;17.93;100.00
10006;BME280;5042;42.626;23.382;2023-05-17T10:30:09;93850.41;;;17.99;100.00
10006;BME280;5042;42.626;23.382;2023-05-17T10:32:37;93837.56;;;18.13;100.00
10006;BME280;5042;42.626;23.382;2023-05-17T10:35:04;93823.84;;;18.21;100.00
10006;BME280;5042;42.626;23.382;2023-05-17T10:37:33;93818.81;;;18.25;100.00
10006;BME280;5042;42.626;23.382;2023-05-17T10:40:00;93814.06;;;18.27;100.00
10006;BME280;5042;42.626;23.382;2023-05-17T10:42:29;93781.16;;;18.22;100.00
10006;BME280;5042;42.626;23.382;2023-05-17T10:44:59;93793.78;;;18.42;100.00
10006;BME280;5042;42.626;23.382;2023-05-17T10:47:31;93780.88;;;18.51;100.00
10006;BME280;5042;42.626;23.382;2023-05-17T10:49:58;93770.13;;;18.68;100.00
10006;BME280;5042;42.626;23.382;2023-05-17T10:52:26;93762.28;;;18.51;100.00
10006;BME280;5042;42.626;23.382;2023-05-17T10:54:53;93759.66;;;18.51;100.00
10006;BME280;5042;42.626;23.382;2023-05-17T10:57:21;93731.09;;;18.36;100.00
10006;BME280;5042;42.626;23.382;2023-05-17T11:00:00;93750.66;;;18.57;100.00
10006;BME280;5042;42.626;23.382;2023-05-17T11:02:31;93743.31;;;18.70;100.00
10006;BME280;5042;42.626;23.382;2023-05-17T11:04:58;93735.94;;;18.77;100.00
10006;BME280;5042;42.626;23.382;2023-05-17T11:07:27;93730.41;;;18.83;100.00
10006;BME280;5042;42.626;23.382;2023-05-17T11:10:03;93744.63;;;18.67;100.00
10006;BME280;5042;42.626;23.382;2023-05-17T11:12:33;93740.06;;;18.25;100.00
10006;BME280;5042;42.626;23.382;2023-05-17T11:15:04;93758.88;;;18.23;100.00
10006;BME280;5042;42.626;23.382;2023-05-17T11:17:35;93758.75;;;17.86;100.00
10006;BME280;5042;42.626;23.382;2023-05-17T11:20:07;93757.66;;;17.60;100.00
10006;BME280;5042;42.626;23.382;2023-05-17T11:22:39;93773.56;;;17.60;100.00
10006;BME280;5042;42.626;23.382;2023-05-17T11:25:08;93766.56;;;17.49;100.00
10006;BME280;5042;42.626;23.382;2023-05-17T11:27:37;93786.56;;;17.40;100.00
10006;BME280;5042;42.626;23.382;2023-05-17T11:30:15;93789.13;;;17.34;100.00
10006;BME280;5042;42.626;23.382;2023-05-17T11:32:46;93792.50;;;17.47;100.00
10006;BME280;5042;42.626;23.382;2023-05-17T11:35:13;93809.44;;;17.68;100.00
10006;BME280;5042;42.626;23.382;2023-05-17T11:37:42;93809.75;;;17.71;100.00
10006;BME280;5042;42.626;23.382;2023-05-17T11:40:10;93814.97;;;17.66;100.00
10006;BME280;5042;42.626;23.382;2023-05-17T11:42:39;93765.00;;;17.31;100.00
10006;BME280;5042;42.626;23.382;2023-05-17T11:45:08;93817.13;;;17.69;100.00
10006;BME280;5042;42.626;23.382;2023-05-17T11:47:38;93827.91;;;17.63;100.00
10006;BME280;5042;42.626;23.382;2023-05-17T11:50:06;93826.94;;;17.47;100.00
10006;BME280;5042;42.626;23.382;2023-05-17T11:52:33;93830.72;;;17.34;100.00
10006;BME280;5042;42.626;23.382;2023-05-17T11:55:01;93838.00;;;17.44;100.00
10006;BME280;5042;42.626;23.382;2023-05-17T11:57:29;93819.34;;;17.33;100.00
10006;BME280;5042;42.626;23.382;2023-05-17T11:59:59;93824.75;;;17.44;100.00
10006;BME280;5042;42.626;23.382;2023-05-17T12:02:28;93834.72;;;17.36;100.00
10006;BME280;5042;42.626;23.382;2023-05-17T12:04:55;93823.16;;;17.43;100.00
10006;BME280;5042;42.626;23.382;2023-05-17T12:07:23;93832.47;;;17.45;100.00
10006;BME280;5042;42.626;23.382;2023-05-17T12:09:50;93819.09;;;17.35;100.00
10006;BME280;5042;42.626;23.382;2023-05-17T12:12:18;93809.22;;;17.30;100.00
10006;BME280;5042;42.626;23.382;2023-05-17T12:14:46;93821.56;;;17.42;100.00
10006;BME280;5042;42.626;23.382;2023-05-17T12:17:21;93832.00;;;17.31;100.00
10006;BME280;5042;42.626;23.382;2023-05-17T12:19:54;93829.63;;;17.30;100.00
10006;BME280;5042;42.626;23.382;2023-05-17T12:22:21;93821.25;;;17.38;100.00
10006;BME280;5042;42.626;23.382;2023-05-17T12:24:47;93815.28;;;17.48;100.00
10006;BME280;5042;42.626;23.382;2023-05-17T12:27:24;93807.50;;;17.41;100.00
10006;BME280;5042;42.626;23.382;2023-05-17T12:29:51;93815.50;;;17.46;100.00
10006;BME280;5042;42.626;23.382;2023-05-17T12:32:18;93810.66;;;17.38;100.00
10006;BME280;5042;42.626;23.382;2023-05-17T12:34:45;93806.16;;;17.38;100.00
10006;BME280;5042;42.626;23.382;2023-05-17T12:37:15;93773.00;;;17.14;100.00
10006;BME280;5042;42.626;23.382;2023-05-17T12:39:42;93800.16;;;17.48;100.00
10006;BME280;5042;42.626;23.382;2023-05-17T12:42:09;93813.19;;;17.50;100.00
10006;BME280;5042;42.626;23.382;2023-05-17T12:44:36;93805.91;;;17.40;100.00
10006;BME280;5042;42.626;23.382;2023-05-17T12:47:02;93806.94;;;17.39;100.00
10006;BME280;5042;42.626;23.382;2023-05-17T12:49:29;93801.97;;;17.43;100.00
10006;BME280;5042;42.626;23.382;2023-05-17T12:52:02;93799.63;;;17.46;100.00
10006;BME280;5042;42.626;23.382;2023-05-17T12:54:31;93800.28;;;17.36;100.00